Terminal Aerodrome Forecast
Issued by NWS Albuquerque, NM

Home | Current Version | Previous Version | Text Only | Print | Product List | Glossary On
Versions: 1 2 3 4 5 6 7 8 9 10 11 12 13 14 15 16 17 18 19
544
FTUS45 KABQ 240607 AAB
TAFABQ
TAF AMD
KABQ 240607Z 2406/2506 26018G25KT P6SM BKN070
     FM240800 25015KT P6SM VCSH OVC040
      TEMPO 2408/2412 5SM -SN OVC030
     FM241200 25013KT P6SM VCSH OVC035
     FM241600 25015G25KT P6SM BKN045
     FM242000 27020G28KT P6SM SCT050 SCT100
     FM250100 28013KT P6SM VCSH BKN050=

USA.gov is the U.S. government's official web portal to all federal, state and local government web resources and services.